»·PEaware :: N224LW KMRY-KSMX

N224LW :: KMRY-KSMX

FLIGHT INFORMATION

Flight Status: Arrived
Operator: Privately registered:
United States
More flights under this callsign
Pilot: Rod Tataryn (6553)
Aircraft: Unknown
(S22T)
More flights by this aircraft type
Origin: KMRY Monterey Peninsula
United States
Destination: KSMX Santa Maria Pub/Capt Hancock
United States
More flights between these airports :: More routes between these airports
Route: +MRY4 SNS V25 PRB V113 MQO WINCH SMX
File this flight plan on PilotEdge
Remarks:
Altitude:
(Current/Filed)
7,000ft
Speed:
(Current/Filed)
180kts
Departed: 07-Jun-17 09:28 PM
Arrived: 07-Jun-17 10:24 PM
Distance/Time
Traveled:
122nm/0:56
Distance/Time
To Go:
Arrived

Flight Plot

Page will automatically refresh every two minutes.

Flight plan parsing failed; only flown route is shown


Map Options




Map Legend


Flown Route
Filed Route
Departure Airport
Arrival Airport
Navaid (VOR, NDB)
Fix

Horizontal Profiles

Position Reports

Time Latitude Longitude Heading Altitude Ground
Speed
07-Jun-17 21:06 36.587796 -121.838651 292 257ft 0kts
07-Jun-17 21:07 36.587796 -121.838651 292 257ft 0kts
07-Jun-17 21:08 36.587796 -121.838651 292 257ft 0kts
07-Jun-17 21:09 36.587796 -121.838651 292 257ft 0kts
07-Jun-17 21:10 36.587796 -121.838651 292 257ft 0kts
07-Jun-17 21:11 36.587796 -121.838651 292 257ft 0kts
07-Jun-17 21:12 36.587796 -121.838651 292 257ft 0kts
07-Jun-17 21:13 36.587796 -121.838651 292 257ft 0kts
07-Jun-17 21:14 36.587796 -121.838651 292 257ft 0kts
07-Jun-17 21:15 36.587796 -121.838651 292 257ft 0kts
07-Jun-17 21:16 36.588803 -121.856950 360 257ft 0kts
07-Jun-17 21:17 36.588803 -121.856950 360 257ft 0kts
07-Jun-17 21:18 36.588803 -121.856950 360 257ft 0kts
07-Jun-17 21:19 36.588803 -121.856950 360 257ft 0kts
07-Jun-17 21:20 36.588803 -121.856950 360 257ft 0kts
07-Jun-17 21:21 36.588879 -121.856925 28 257ft 3kts
07-Jun-17 21:22 36.588715 -121.851980 113 257ft 14kts
07-Jun-17 21:23 36.586970 -121.846799 115 257ft 18kts
07-Jun-17 21:24 36.585074 -121.841589 112 257ft 21kts
07-Jun-17 21:25 36.582733 -121.836174 67 257ft 0kts
07-Jun-17 21:26 36.582733 -121.836174 67 257ft 0kts
07-Jun-17 21:27 36.582733 -121.836174 67 257ft 0kts
07-Jun-17 21:28 36.582870 -121.835145 88 257ft 13kts
07-Jun-17 21:29 36.583212 -121.833511 338 257ft 12kts
07-Jun-17 21:30 36.589631 -121.851751 291 731ft 101kts
07-Jun-17 21:31 36.619304 -121.872197 341 2134ft 125kts
07-Jun-17 21:32 36.645021 -121.866974 73 3072ft 136kts
07-Jun-17 21:33 36.647956 -121.820922 89 4374ft 135kts
07-Jun-17 21:34 36.651674 -121.774090 89 5629ft 139kts
07-Jun-17 21:35 36.655699 -121.725970 90 6865ft 142kts
07-Jun-17 21:36 36.660974 -121.657596 89 6995ft 184kts
07-Jun-17 21:37 36.663411 -121.604323 117 6992ft 179kts
07-Jun-17 21:38 36.628014 -121.564859 146 6994ft 172kts
07-Jun-17 21:39 36.590854 -121.527731 145 6993ft 172kts
07-Jun-17 21:40 36.553310 -121.490248 146 6993ft 173kts
07-Jun-17 21:41 36.515811 -121.452890 146 6993ft 173kts
07-Jun-17 21:42 36.478275 -121.415513 146 6993ft 173kts
07-Jun-17 21:43 36.440676 -121.378130 146 6994ft 173kts
07-Jun-17 21:44 36.403210 -121.340915 146 6993ft 172kts
07-Jun-17 21:45 36.365807 -121.303804 146 6992ft 172kts
07-Jun-17 21:46 36.328345 -121.266695 146 6990ft 172kts
07-Jun-17 21:47 36.290942 -121.229700 146 6990ft 172kts
07-Jun-17 21:48 36.253622 -121.192820 147 6993ft 172kts
07-Jun-17 21:49 36.216282 -121.155965 146 6989ft 172kts
07-Jun-17 21:50 36.178704 -121.118955 146 6940ft 174kts
07-Jun-17 21:51 36.141082 -121.081915 146 6937ft 173kts
07-Jun-17 21:52 36.103497 -121.044962 146 6937ft 172kts
07-Jun-17 21:53 36.068856 -121.010935 146 6937ft 172kts
07-Jun-17 21:54 36.031445 -120.974234 146 6937ft 172kts
07-Jun-17 21:55 35.993953 -120.937521 146 6937ft 172kts
07-Jun-17 21:56 35.956369 -120.900770 146 6918ft 172kts
07-Jun-17 21:57 35.918756 -120.864013 146 6918ft 172kts
07-Jun-17 21:58 35.881434 -120.827588 146 6922ft 172kts
07-Jun-17 21:59 35.849541 -120.796505 146 6922ft 173kts
07-Jun-17 22:00 35.811864 -120.759822 146 6922ft 173kts
07-Jun-17 22:01 35.774160 -120.723154 146 6922ft 173kts
07-Jun-17 22:02 35.736371 -120.686451 146 6922ft 173kts
07-Jun-17 22:03 35.698649 -120.649866 146 6922ft 173kts
07-Jun-17 22:04 35.657855 -120.631110 195 6924ft 163kts
07-Jun-17 22:05 35.613819 -120.645233 195 6922ft 163kts
07-Jun-17 22:06 35.569744 -120.659185 195 6921ft 164kts
07-Jun-17 22:07 35.525722 -120.673096 195 6921ft 163kts
07-Jun-17 22:08 35.479042 -120.687542 195 6309ft 183kts
07-Jun-17 22:09 35.429252 -120.703303 195 5509ft 185kts
07-Jun-17 22:10 35.379929 -120.718983 195 4609ft 183kts
07-Jun-17 22:11 35.332201 -120.734000 195 3699ft 173kts
07-Jun-17 22:12 35.288921 -120.747637 195 3273ft 154kts
07-Jun-17 22:13 35.248713 -120.756656 159 3276ft 149kts
07-Jun-17 22:14 35.210786 -120.734430 154 3276ft 153kts
07-Jun-17 22:15 35.172534 -120.710756 157 3267ft 154kts
07-Jun-17 22:16 35.135425 -120.688216 158 3264ft 144kts
07-Jun-17 22:17 35.099538 -120.669095 169 3265ft 138kts
07-Jun-17 22:18 35.064709 -120.651206 140 3266ft 143kts
07-Jun-17 22:19 35.036409 -120.617103 140 3264ft 141kts
07-Jun-17 22:20 35.012487 -120.588173 141 3158ft 120kts
07-Jun-17 22:21 34.985019 -120.555985 136 2489ft 154kts
07-Jun-17 22:22 34.958969 -120.525054 135 1781ft 133kts
07-Jun-17 22:23 34.936472 -120.498112 134 1172ft 110kts
07-Jun-17 22:24 34.916620 -120.474197 136 539ft 90kts
07-Jun-17 22:25 34.900662 -120.455173 138 263ft 51kts
07-Jun-17 22:26 34.900687 -120.453591 15 263ft 0kts
07-Jun-17 22:27 34.900687 -120.453591 15 263ft 0kts
07-Jun-17 22:28 34.900333 -120.452371 135 263ft 25kts
07-Jun-17 22:29 34.900538 -120.450451 223 263ft 0kts
07-Jun-17 22:30 34.900538 -120.450451 223 263ft 0kts
07-Jun-17 22:31 34.900538 -120.450451 223 263ft 0kts
07-Jun-17 22:32 34.900538 -120.450451 223 263ft 0kts
07-Jun-17 22:33 34.900538 -120.450451 223 263ft 0kts
07-Jun-17 22:34 34.900538 -120.450451 223 263ft 0kts

Navigation Log

Ident Type
Flight plan parsing failed, navigation log unavailable